createdAt,value
2022-08-21T00:03:38.512Z,85.40
2022-08-21T00:09:08.863Z,85.59
2022-08-21T00:14:38.749Z,86.48
2022-08-21T00:20:09.498Z,86.30
2022-08-21T00:25:38.571Z,86.42
2022-08-21T00:31:08.532Z,86.75
2022-08-21T00:36:37.601Z,87.28
2022-08-21T00:42:06.081Z,88.53
2022-08-21T00:47:36.606Z,88.87
2022-08-21T00:53:05.633Z,88.75
2022-08-21T00:58:36.847Z,88.42
2022-08-21T01:04:07.741Z,88.59
2022-08-21T01:09:36.472Z,89.16
2022-08-21T01:15:07.509Z,89.81
2022-08-21T01:20:38.067Z,91.33
2022-08-21T01:26:09.180Z,91.66
2022-08-21T01:31:38.641Z,92.59
2022-08-21T01:37:07.352Z,92.66
2022-08-21T01:42:37.460Z,93.07
2022-08-21T01:48:06.061Z,93.82
2022-08-21T01:53:36.825Z,95.27
2022-08-21T01:59:06.553Z,96.14
2022-08-21T02:04:35.235Z,95.62
2022-08-21T02:10:04.353Z,95.72
2022-08-21T02:15:34.753Z,95.66
2022-08-21T02:21:03.287Z,96.29
2022-08-21T02:26:32.379Z,96.31
2022-08-21T02:32:02.519Z,96.30
2022-08-21T02:37:32.285Z,95.77
2022-08-21T02:43:01.476Z,96.28
2022-08-21T02:48:32.952Z,97.02
2022-08-21T02:54:01.883Z,97.60
2022-08-21T02:59:31.015Z,97.48
2022-08-21T03:05:01.460Z,96.30
2022-08-21T03:10:30.049Z,97.18
2022-08-21T03:15:59.054Z,96.85
2022-08-21T03:21:31.336Z,96.69
2022-08-21T03:27:00.936Z,96.32
2022-08-21T03:32:32.541Z,96.43
2022-08-21T03:38:02.371Z,96.18
2022-08-21T03:43:32.206Z,95.34
2022-08-21T03:49:00.918Z,94.87
2022-08-21T03:54:31.219Z,94.64
2022-08-21T03:59:59.956Z,94.71
2022-08-21T04:05:31.546Z,94.85
2022-08-21T04:11:01.192Z,92.93
2022-08-21T04:16:30.272Z,93.09
2022-08-21T04:21:58.900Z,91.96
2022-08-21T04:27:29.530Z,91.10
2022-08-21T04:32:59.357Z,90.21
2022-08-21T04:38:33.147Z,89.61
2022-08-21T04:44:08.087Z,88.73
2022-08-21T04:49:37.197Z,88.73
2022-08-21T04:55:06.313Z,88.31
2022-08-21T05:00:36.401Z,88.07
2022-08-21T05:06:07.097Z,87.06
2022-08-21T05:11:36.276Z,87.12
2022-08-21T05:17:06.473Z,86.08
2022-08-21T05:22:35.038Z,85.74
2022-08-21T05:28:03.921Z,84.75
2022-08-21T05:33:34.490Z,84.31
2022-08-21T05:39:04.963Z,82.94
2022-08-21T05:44:34.173Z,81.16
2022-08-21T05:50:05.764Z,79.55
2022-08-21T05:55:35.753Z,78.71
2022-08-21T06:01:05.105Z,79.07
2022-08-21T06:06:35.986Z,78.20
2022-08-21T06:12:05.814Z,77.90
2022-08-21T06:17:35.137Z,79.82
2022-08-21T06:23:05.480Z,73.14
2022-08-21T06:28:34.071Z,61.48
2022-08-21T06:34:02.823Z,51.86
2022-08-21T06:39:33.619Z,46.84
2022-08-21T06:45:01.818Z,42.32
2022-08-21T06:50:31.373Z,40.34
2022-08-21T06:56:01.218Z,39.75
2022-08-21T07:01:30.519Z,39.47
2022-08-21T07:06:59.442Z,38.02
2022-08-21T07:12:29.366Z,36.40
2022-08-21T07:17:58.156Z,35.23
2022-08-21T07:23:28.362Z,35.99
2022-08-21T07:28:58.667Z,37.14
2022-08-21T07:34:27.194Z,35.95
2022-08-21T07:39:56.007Z,37.52
2022-08-21T07:45:27.350Z,39.89
2022-08-21T07:50:56.645Z,39.40
2022-08-21T07:56:25.042Z,38.30
2022-08-21T08:01:55.460Z,37.84
2022-08-21T08:07:23.981Z,40.82
2022-08-21T08:12:53.351Z,43.22
2022-08-21T08:18:23.371Z,42.49
2022-08-21T08:23:51.891Z,38.89
2022-08-21T08:29:21.065Z,43.15
2022-08-21T08:34:52.598Z,45.11
2022-08-21T08:40:24.827Z,42.26
2022-08-21T08:45:56.765Z,42.19
2022-08-21T08:51:29.416Z,42.70
2022-08-21T08:56:58.003Z,41.01
2022-08-21T09:02:28.636Z,39.96
2022-08-21T09:08:15.358Z,43.21
2022-08-21T09:13:52.525Z,46.42
2022-08-21T09:19:29.987Z,47.61
2022-08-21T09:25:04.720Z,44.57
2022-08-21T09:30:34.535Z,46.01
2022-08-21T09:36:03.228Z,43.20
2022-08-21T09:41:36.345Z,42.86
2022-08-21T09:47:05.022Z,42.08
2022-08-21T09:52:34.117Z,41.55
2022-08-21T09:58:04.150Z,41.65
2022-08-21T10:03:32.677Z,41.89
2022-08-21T10:09:07.815Z,40.45
2022-08-21T10:14:45.387Z,39.73
2022-08-21T10:20:16.747Z,37.53
2022-08-21T10:25:50.513Z,37.69
2022-08-21T10:31:32.220Z,38.42
2022-08-21T10:37:10.721Z,36.80
2022-08-21T10:42:43.970Z,35.77
2022-08-21T10:48:18.151Z,35.60
2022-08-21T10:53:57.190Z,36.45
2022-08-21T10:59:29.111Z,37.86
2022-08-21T11:05:03.147Z,38.20
2022-08-21T11:10:35.710Z,39.16
2022-08-21T11:16:13.134Z,37.84
2022-08-21T11:21:46.799Z,38.45
2022-08-21T11:27:20.552Z,38.40
2022-08-21T11:32:56.018Z,37.89
2022-08-21T11:38:31.215Z,38.67
2022-08-21T11:44:04.218Z,39.06
2022-08-21T11:49:44.794Z,37.83
2022-08-21T11:55:17.655Z,37.68
2022-08-21T12:00:55.713Z,36.98
2022-08-21T12:06:31.025Z,37.51
2022-08-21T12:12:06.226Z,38.22
2022-08-21T12:17:37.986Z,37.27
2022-08-21T12:23:12.825Z,37.91
2022-08-21T12:28:43.523Z,37.94
2022-08-21T12:34:12.373Z,37.65
2022-08-21T12:39:45.830Z,37.19
2022-08-21T12:45:19.647Z,37.27
2022-08-21T12:50:51.563Z,37.23
2022-08-21T12:56:20.982Z,36.30
2022-08-21T13:01:53.690Z,36.62
2022-08-21T13:07:26.150Z,36.55
2022-08-21T13:12:56.819Z,37.16
2022-08-21T13:18:28.694Z,36.47
2022-08-21T13:24:31.746Z,36.20
2022-08-21T13:30:06.265Z,36.34
2022-08-21T13:35:48.094Z,36.33
2022-08-21T13:41:22.491Z,36.44
2022-08-21T13:46:51.994Z,36.60
2022-08-21T13:52:23.506Z,37.66
2022-08-21T13:58:00.870Z,38.55
2022-08-21T14:03:33.334Z,38.62
2022-08-21T14:09:09.397Z,38.56
2022-08-21T14:14:38.095Z,38.74
2022-08-21T14:20:08.524Z,38.51
2022-08-21T14:25:44.024Z,39.22
2022-08-21T14:31:15.987Z,39.60
2022-08-21T14:36:44.911Z,40.39
2022-08-21T14:42:15.396Z,40.55
2022-08-21T14:47:44.720Z,41.22
2022-08-21T14:53:14.137Z,40.22
2022-08-21T14:58:46.021Z,39.43
2022-08-21T15:04:15.202Z,40.03
2022-08-21T15:09:43.872Z,40.85
2022-08-21T15:15:14.018Z,40.66
2022-08-21T15:20:47.042Z,41.79
2022-08-21T15:26:15.827Z,42.18
2022-08-21T15:31:54.387Z,42.75
2022-08-21T15:37:23.588Z,44.17
2022-08-21T15:42:53.892Z,44.73
2022-08-21T15:48:24.429Z,44.85
2022-08-21T15:53:52.517Z,46.37
2022-08-21T15:59:23.134Z,46.39
2022-08-21T16:04:53.664Z,44.79
2022-08-21T16:10:27.514Z,43.68
2022-08-21T16:15:58.917Z,44.13
2022-08-21T16:21:29.380Z,45.24
2022-08-21T16:26:58.480Z,45.03
2022-08-21T16:32:27.022Z,45.38
2022-08-21T16:38:00.070Z,45.85
2022-08-21T16:43:30.710Z,46.20
2022-08-21T16:48:59.656Z,46.04
2022-08-21T16:54:31.029Z,46.19
2022-08-21T16:59:59.707Z,46.14
2022-08-21T17:05:29.050Z,46.91
2022-08-21T17:10:59.952Z,46.98
2022-08-21T17:16:29.633Z,45.90
2022-08-21T17:21:58.732Z,46.86
2022-08-21T17:27:29.333Z,46.39
2022-08-21T17:32:59.032Z,47.17
2022-08-21T17:38:28.093Z,47.35
2022-08-21T17:43:58.474Z,47.90
2022-08-21T17:49:26.732Z,48.23
2022-08-21T17:54:55.705Z,49.13
2022-08-21T18:00:27.587Z,49.04
2022-08-21T18:05:57.271Z,49.13
2022-08-21T18:11:26.854Z,48.84
2022-08-21T18:16:57.551Z,47.90
2022-08-21T18:22:26.512Z,47.14
2022-08-21T18:27:54.915Z,46.30
2022-08-21T18:33:25.775Z,46.62
2022-08-21T18:38:55.029Z,46.80
2022-08-21T18:44:27.362Z,47.01
2022-08-21T18:49:58.029Z,47.72
2022-08-21T18:55:27.523Z,48.18
2022-08-21T19:00:57.715Z,48.23
2022-08-21T19:06:28.074Z,48.32
2022-08-21T19:11:57.070Z,47.82
2022-08-21T19:17:25.552Z,47.66
2022-08-21T19:22:56.670Z,47.90
2022-08-21T19:28:29.814Z,47.93
2022-08-21T19:34:01.994Z,48.67
2022-08-21T19:39:35.486Z,48.54
2022-08-21T19:45:04.342Z,49.06
2022-08-21T19:50:32.962Z,48.81
2022-08-21T19:56:03.072Z,49.46
2022-08-21T20:01:31.937Z,49.94
2022-08-21T20:07:00.947Z,49.98
2022-08-21T20:12:31.352Z,50.50
2022-08-21T20:18:01.689Z,50.96
2022-08-21T20:23:30.623Z,51.07
2022-08-21T20:29:04.348Z,51.20
2022-08-21T20:34:35.965Z,51.84
2022-08-21T20:40:08.210Z,51.99
2022-08-21T20:45:37.899Z,53.12
2022-08-21T20:51:08.724Z,52.43
2022-08-21T20:56:41.194Z,52.23
2022-08-21T21:02:18.282Z,52.37
2022-08-21T21:07:55.571Z,52.41
2022-08-21T21:13:26.733Z,52.46
2022-08-21T21:19:00.847Z,52.36
2022-08-21T21:24:36.775Z,52.46
2022-08-21T21:30:07.366Z,52.56
2022-08-21T21:41:36.235Z,53.80
2022-08-21T21:47:08.438Z,54.24
2022-08-21T21:52:44.762Z,54.64
2022-08-21T21:58:28.950Z,55.17
2022-08-21T22:04:03.510Z,54.79
2022-08-21T22:09:42.303Z,56.30
2022-08-21T22:15:12.905Z,55.93
2022-08-21T22:20:56.559Z,55.85
2022-08-21T22:26:33.748Z,55.68
2022-08-21T22:32:04.864Z,54.81
2022-08-21T22:37:39.523Z,55.01
2022-08-21T22:43:15.669Z,55.00
2022-08-21T22:48:53.455Z,54.77
2022-08-21T22:54:25.091Z,54.88
2022-08-21T22:59:57.889Z,55.38
2022-08-21T23:05:33.991Z,54.80
2022-08-21T23:16:57.870Z,55.45
2022-08-21T23:22:37.241Z,55.29
2022-08-21T23:28:11.559Z,56.22
2022-08-21T23:33:52.709Z,56.16
2022-08-21T23:45:21.022Z,54.93
2022-08-21T23:50:59.245Z,53.25
2022-08-21T23:56:38.996Z,53.68
